createdAt,value
2018-12-21T00:02:27.153Z,23.80
2018-12-21T00:04:55.373Z,23.80
2018-12-21T00:07:23.549Z,23.80
2018-12-21T00:09:51.753Z,23.80
2018-12-21T00:12:19.963Z,23.90
2018-12-21T00:14:48.767Z,23.80
2018-12-21T00:17:16.936Z,23.90
2018-12-21T00:19:45.129Z,23.90
2018-12-21T00:22:13.301Z,23.90
2018-12-21T00:24:41.488Z,23.90
2018-12-21T00:27:09.778Z,23.90
2018-12-21T00:29:37.958Z,23.90
2018-12-21T00:32:11.621Z,23.90
2018-12-21T00:34:45.393Z,23.90
2018-12-21T00:37:19.091Z,23.90
2018-12-21T00:39:52.887Z,23.90
2018-12-21T00:42:26.300Z,24.00
2018-12-21T00:44:58.737Z,24.00
2018-12-21T00:47:27.020Z,24.00
2018-12-21T00:49:55.204Z,24.00
2018-12-21T00:52:23.392Z,24.00
2018-12-21T00:54:51.573Z,24.00
2018-12-21T00:57:19.754Z,24.00
2018-12-21T00:59:49.668Z,24.00
2018-12-21T01:02:19.524Z,24.10
2018-12-21T01:04:47.800Z,24.10
2018-12-21T01:07:16.376Z,24.10
2018-12-21T01:09:44.571Z,24.10
2018-12-21T01:12:13.126Z,24.10
2018-12-21T01:14:41.917Z,24.10
2018-12-21T01:17:11.146Z,24.10
2018-12-21T01:19:39.527Z,24.10
2018-12-21T01:22:08.584Z,24.10
2018-12-21T01:24:36.777Z,24.10
2018-12-21T01:27:07.997Z,24.10
2018-12-21T01:29:36.187Z,24.10
2018-12-21T01:32:04.513Z,24.20
2018-12-21T01:34:32.692Z,24.20
2018-12-21T01:37:00.883Z,24.20
2018-12-21T01:39:29.159Z,24.20
2018-12-21T01:41:58.338Z,24.20
2018-12-21T01:44:26.520Z,24.20
2018-12-21T01:46:54.917Z,24.20
2018-12-21T01:49:23.113Z,24.30
2018-12-21T01:51:51.294Z,24.30
2018-12-21T01:54:19.486Z,24.30
2018-12-21T01:56:47.744Z,24.30
2018-12-21T01:59:15.937Z,24.30
2018-12-21T02:01:44.132Z,24.30
2018-12-21T02:04:12.405Z,24.30
2018-12-21T02:06:40.610Z,24.30
2018-12-21T02:09:08.825Z,24.40
2018-12-21T02:11:37.023Z,24.40
2018-12-21T02:14:05.212Z,24.40
2018-12-21T02:16:33.400Z,24.40
2018-12-21T02:19:01.580Z,24.40
2018-12-21T02:21:29.774Z,24.40
2018-12-21T02:23:58.058Z,24.40
2018-12-21T02:26:26.427Z,24.40
2018-12-21T02:28:54.599Z,24.40
2018-12-21T02:31:22.828Z,24.50
2018-12-21T02:33:51.012Z,24.50
2018-12-21T02:36:19.202Z,24.50
2018-12-21T02:38:47.469Z,24.50
2018-12-21T02:41:15.815Z,24.50
2018-12-21T02:43:44.083Z,24.50
2018-12-21T02:46:12.258Z,24.50
2018-12-21T02:48:40.470Z,24.60
2018-12-21T02:51:08.644Z,24.60
2018-12-21T02:53:36.813Z,24.60
2018-12-21T02:56:05.001Z,24.60
2018-12-21T02:58:33.187Z,24.60
2018-12-21T03:01:01.371Z,24.60
2018-12-21T03:03:29.697Z,24.60
2018-12-21T03:05:57.905Z,24.60
2018-12-21T03:08:26.215Z,24.60
2018-12-21T03:10:54.753Z,24.60
2018-12-21T03:13:22.914Z,24.60
2018-12-21T03:15:51.501Z,24.60
2018-12-21T03:18:19.678Z,24.60
2018-12-21T03:20:47.959Z,24.60
2018-12-21T03:23:16.203Z,24.60
2018-12-21T03:25:44.674Z,24.60
2018-12-21T03:28:12.967Z,24.60
2018-12-21T03:30:41.211Z,24.60
2018-12-21T03:33:09.509Z,24.60
2018-12-21T03:35:37.687Z,24.60
2018-12-21T03:38:05.977Z,24.60
2018-12-21T03:40:34.538Z,24.60
2018-12-21T03:43:02.913Z,24.60
2018-12-21T03:45:31.240Z,24.60
2018-12-21T03:47:59.446Z,24.60
2018-12-21T03:50:27.738Z,24.60
2018-12-21T03:52:55.943Z,24.60
2018-12-21T03:55:24.170Z,24.60
2018-12-21T03:57:52.407Z,24.60
2018-12-21T04:00:20.762Z,24.60
2018-12-21T04:02:48.961Z,24.60
2018-12-21T04:05:17.171Z,24.60
2018-12-21T04:07:45.463Z,24.60
2018-12-21T04:10:14.046Z,24.60
2018-12-21T04:12:42.348Z,24.60
2018-12-21T04:15:10.550Z,24.60
2018-12-21T04:17:38.758Z,24.60
2018-12-21T04:20:07.046Z,24.60
2018-12-21T04:22:35.259Z,24.60
2018-12-21T04:25:03.722Z,24.60
2018-12-21T04:27:32.262Z,24.60
2018-12-21T04:30:00.803Z,24.60
2018-12-21T04:32:29.114Z,24.60
2018-12-21T04:34:57.307Z,24.60
2018-12-21T04:37:25.610Z,24.60
2018-12-21T04:39:53.829Z,24.60
2018-12-21T04:42:22.207Z,24.60
2018-12-21T04:44:50.420Z,24.60
2018-12-21T04:47:18.981Z,24.60
2018-12-21T04:49:47.177Z,24.60
2018-12-21T04:52:15.403Z,24.60
2018-12-21T04:54:43.709Z,24.60
2018-12-21T04:57:11.920Z,24.60
2018-12-21T04:59:40.127Z,24.60
2018-12-21T05:02:08.498Z,24.60
2018-12-21T05:04:36.688Z,24.60
2018-12-21T05:07:12.245Z,24.60
2018-12-21T05:09:35.256Z,24.60
2018-12-21T05:12:03.639Z,24.60
2018-12-21T05:14:31.847Z,24.50
2018-12-21T05:17:00.232Z,24.60
2018-12-21T05:19:28.522Z,24.60
2018-12-21T05:21:56.801Z,24.60
2018-12-21T05:24:25.034Z,24.50
2018-12-21T05:26:53.418Z,24.60
2018-12-21T05:29:21.706Z,24.50
2018-12-21T05:31:49.908Z,24.50
2018-12-21T05:34:18.138Z,24.60
2018-12-21T05:36:47.190Z,24.50
2018-12-21T05:39:15.473Z,24.50
2018-12-21T05:41:43.915Z,24.50
2018-12-21T05:44:12.154Z,24.50
2018-12-21T05:46:40.355Z,24.50
2018-12-21T05:49:08.962Z,24.50
2018-12-21T05:51:38.162Z,24.50
2018-12-21T05:54:06.398Z,24.50
2018-12-21T05:56:34.583Z,24.50
2018-12-21T05:59:02.947Z,24.50
2018-12-21T06:01:31.159Z,24.50
2018-12-21T06:03:59.386Z,24.50
2018-12-21T06:06:27.586Z,24.50
2018-12-21T06:08:55.811Z,24.50
2018-12-21T06:11:24.019Z,24.50
2018-12-21T06:13:52.225Z,24.50
2018-12-21T06:16:20.424Z,24.50
2018-12-21T06:18:48.638Z,24.50
2018-12-21T06:21:16.830Z,24.50
2018-12-21T06:23:45.131Z,24.50
2018-12-21T06:26:13.419Z,24.50
2018-12-21T06:28:41.651Z,24.50
2018-12-21T06:31:09.846Z,24.50
2018-12-21T06:33:38.058Z,24.50
2018-12-21T06:36:06.355Z,24.50
2018-12-21T06:38:34.634Z,24.40
2018-12-21T06:41:02.855Z,24.50
2018-12-21T06:43:31.059Z,24.40
2018-12-21T06:45:59.278Z,24.50
2018-12-21T06:48:27.491Z,24.40
2018-12-21T06:50:55.790Z,24.50
2018-12-21T06:53:24.002Z,24.40
2018-12-21T06:55:52.198Z,24.40
2018-12-21T06:58:20.554Z,24.40
2018-12-21T07:00:48.750Z,24.40
2018-12-21T07:03:17.460Z,24.40
2018-12-21T07:05:45.830Z,24.40
2018-12-21T07:08:14.038Z,24.40
2018-12-21T07:10:42.313Z,24.40
2018-12-21T07:13:10.529Z,24.40
2018-12-21T07:15:38.746Z,24.40
2018-12-21T07:18:06.948Z,24.40
2018-12-21T07:20:35.258Z,24.40
2018-12-21T07:23:03.457Z,24.40
2018-12-21T07:25:31.666Z,24.40
2018-12-21T07:27:59.885Z,24.40
2018-12-21T07:30:28.225Z,24.40
2018-12-21T07:32:56.820Z,24.40
2018-12-21T07:35:25.122Z,24.40
2018-12-21T07:37:53.355Z,24.30
2018-12-21T07:40:21.644Z,24.30
2018-12-21T07:42:49.879Z,24.40
2018-12-21T07:45:18.214Z,24.30
2018-12-21T07:47:46.481Z,24.40
2018-12-21T07:50:15.427Z,24.30
2018-12-21T07:52:43.622Z,24.30
2018-12-21T07:55:11.867Z,24.40
2018-12-21T07:57:40.597Z,24.40
2018-12-21T08:00:11.555Z,24.30
2018-12-21T08:02:39.799Z,24.30
2018-12-21T08:05:08.170Z,24.30
2018-12-21T08:07:36.582Z,24.30
2018-12-21T08:10:10.859Z,24.30
2018-12-21T08:12:39.093Z,24.30
2018-12-21T08:15:07.383Z,24.30
2018-12-21T08:17:35.598Z,24.30
2018-12-21T08:20:04.090Z,24.30
2018-12-21T08:22:32.302Z,24.30
2018-12-21T08:25:00.510Z,24.30
2018-12-21T08:27:28.751Z,24.30
2018-12-21T08:29:56.947Z,24.30
2018-12-21T08:32:25.147Z,24.30
2018-12-21T08:34:53.383Z,24.30
2018-12-21T08:37:21.601Z,24.30
2018-12-21T08:39:49.806Z,24.30
2018-12-21T08:42:18.018Z,24.30
2018-12-21T08:44:46.248Z,24.30
2018-12-21T08:47:14.540Z,24.30
2018-12-21T08:49:42.735Z,24.30
2018-12-21T08:52:10.955Z,24.30
2018-12-21T08:54:39.161Z,24.30
2018-12-21T08:57:07.362Z,24.30
2018-12-21T08:59:35.564Z,24.30
2018-12-21T09:02:03.759Z,24.20
2018-12-21T09:04:32.432Z,24.30
2018-12-21T09:07:00.929Z,24.20
2018-12-21T09:09:29.147Z,24.20
2018-12-21T09:11:57.367Z,24.30
2018-12-21T09:14:25.566Z,24.20
2018-12-21T09:16:53.793Z,24.30
2018-12-21T09:19:22.066Z,24.20
2018-12-21T09:21:50.645Z,24.30
2018-12-21T09:24:18.943Z,24.30
2018-12-21T09:26:47.262Z,24.30
2018-12-21T09:29:15.487Z,24.20
2018-12-21T09:31:43.671Z,24.30
2018-12-21T09:34:14.134Z,24.30
2018-12-21T09:36:43.048Z,24.30
2018-12-21T09:39:11.538Z,24.20
2018-12-21T09:41:39.751Z,24.20
2018-12-21T09:44:08.050Z,24.30
2018-12-21T09:46:36.277Z,24.20
2018-12-21T09:49:04.558Z,24.20
2018-12-21T09:51:32.767Z,24.20
2018-12-21T09:54:09.699Z,24.20
2018-12-21T09:56:31.177Z,24.20
2018-12-21T09:58:59.401Z,24.20
2018-12-21T10:01:27.611Z,24.20
2018-12-21T10:03:55.982Z,24.20
2018-12-21T10:06:24.182Z,24.20
2018-12-21T10:08:52.418Z,24.20
2018-12-21T10:11:20.737Z,24.20
2018-12-21T10:13:48.942Z,24.20
2018-12-21T10:16:17.173Z,24.20
2018-12-21T10:18:45.385Z,24.20
2018-12-21T10:21:13.661Z,24.20
2018-12-21T10:23:41.886Z,24.20
2018-12-21T10:26:10.113Z,24.20
2018-12-21T10:28:38.306Z,24.20
2018-12-21T10:31:06.539Z,24.20
2018-12-21T10:33:34.799Z,24.20
2018-12-21T10:36:03.153Z,24.20
2018-12-21T10:38:31.430Z,24.20
2018-12-21T10:40:59.717Z,24.20
2018-12-21T10:43:29.036Z,24.20
2018-12-21T10:45:57.235Z,24.10
2018-12-21T10:48:25.440Z,24.20
2018-12-21T10:50:53.802Z,24.20
2018-12-21T10:53:22.056Z,24.20
2018-12-21T10:55:50.357Z,24.10
2018-12-21T10:58:18.611Z,24.20
2018-12-21T11:00:47.722Z,24.10
2018-12-21T11:03:16.138Z,24.10
2018-12-21T11:05:44.351Z,24.10
2018-12-21T11:08:12.568Z,24.10
2018-12-21T11:10:40.882Z,24.10
2018-12-21T11:13:09.090Z,24.10
2018-12-21T11:15:37.301Z,24.10
2018-12-21T11:18:06.677Z,24.10
2018-12-21T11:20:35.455Z,24.10
2018-12-21T11:23:03.686Z,24.10
2018-12-21T11:25:32.270Z,24.10
2018-12-21T11:28:00.483Z,24.10
2018-12-21T11:30:28.716Z,24.10
2018-12-21T11:32:57.006Z,24.10
2018-12-21T11:35:25.294Z,24.10
2018-12-21T11:37:53.618Z,24.10
2018-12-21T11:40:21.918Z,24.10
2018-12-21T11:42:50.146Z,24.10
2018-12-21T11:45:18.594Z,24.10
2018-12-21T11:47:46.789Z,24.10
2018-12-21T11:50:15.084Z,24.10
2018-12-21T11:52:43.295Z,24.10
2018-12-21T11:55:11.497Z,24.00
2018-12-21T11:57:39.769Z,24.00
2018-12-21T12:00:09.434Z,24.00
2018-12-21T12:02:37.660Z,24.00
2018-12-21T12:05:06.435Z,24.00
2018-12-21T12:07:34.642Z,24.00
2018-12-21T12:10:02.976Z,24.00
2018-12-21T12:12:31.299Z,24.00
2018-12-21T12:14:59.500Z,24.00
2018-12-21T12:17:27.773Z,24.00
2018-12-21T12:19:55.982Z,24.00
2018-12-21T12:22:24.207Z,24.00
2018-12-21T12:24:55.362Z,24.00
2018-12-21T12:27:23.555Z,24.00
2018-12-21T12:29:51.770Z,24.00
2018-12-21T12:32:21.438Z,24.00
2018-12-21T12:34:50.038Z,24.00
2018-12-21T12:37:18.337Z,24.00
2018-12-21T12:39:46.713Z,24.00
2018-12-21T12:42:14.901Z,24.00
2018-12-21T12:44:43.114Z,24.00
2018-12-21T12:47:11.326Z,24.00
2018-12-21T12:49:39.554Z,24.00
2018-12-21T12:52:07.753Z,24.00
2018-12-21T12:54:35.962Z,24.00
2018-12-21T12:57:04.411Z,24.00
2018-12-21T12:59:32.754Z,24.00
2018-12-21T13:02:01.168Z,24.00
2018-12-21T13:04:29.454Z,23.90
2018-12-21T13:06:57.674Z,23.90
2018-12-21T13:09:25.909Z,24.00
2018-12-21T13:11:54.151Z,23.90
2018-12-21T13:14:23.841Z,23.90
2018-12-21T13:16:52.620Z,23.90
2018-12-21T13:19:23.258Z,24.00
2018-12-21T13:21:51.459Z,24.00
2018-12-21T13:24:20.459Z,23.90
2018-12-21T13:26:49.447Z,23.90
2018-12-21T13:29:18.453Z,23.90
2018-12-21T13:31:47.352Z,23.90
2018-12-21T13:34:17.215Z,23.90
2018-12-21T13:36:46.211Z,23.90
2018-12-21T13:39:15.168Z,23.90
2018-12-21T13:41:43.949Z,23.90
2018-12-21T13:44:13.088Z,23.90
2018-12-21T13:46:41.998Z,23.90
2018-12-21T13:49:10.833Z,23.90
2018-12-21T13:51:40.894Z,23.90
2018-12-21T13:54:09.712Z,23.90
2018-12-21T13:56:39.342Z,23.90
2018-12-21T13:59:08.315Z,23.80
2018-12-21T14:01:37.338Z,23.90
2018-12-21T14:04:06.340Z,23.90
2018-12-21T14:06:35.331Z,23.80
2018-12-21T14:09:05.537Z,23.80
2018-12-21T14:11:34.562Z,23.80
2018-12-21T14:14:03.632Z,23.80
2018-12-21T14:16:32.682Z,23.80
2018-12-21T14:19:02.078Z,23.80
2018-12-21T14:21:31.183Z,23.80
2018-12-21T14:24:00.108Z,23.80
2018-12-21T14:26:29.021Z,23.80
2018-12-21T14:28:57.987Z,23.80
2018-12-21T14:31:26.894Z,23.80
2018-12-21T14:33:55.838Z,23.80
2018-12-21T14:36:24.804Z,23.80
2018-12-21T14:38:53.872Z,23.80
2018-12-21T14:41:22.819Z,23.80
2018-12-21T14:43:52.628Z,23.80
2018-12-21T14:46:22.442Z,23.80
2018-12-21T14:48:51.344Z,23.80
2018-12-21T14:51:20.280Z,23.80
2018-12-21T14:53:49.246Z,23.80
2018-12-21T14:56:18.619Z,23.80
2018-12-21T14:58:47.881Z,23.80
2018-12-21T15:01:16.865Z,23.80
2018-12-21T15:03:47.442Z,23.80
2018-12-21T15:06:16.916Z,23.80
2018-12-21T15:08:45.845Z,23.80
2018-12-21T15:11:14.786Z,23.80
2018-12-21T15:13:44.658Z,23.80
2018-12-21T15:16:13.607Z,23.70
2018-12-21T15:18:42.384Z,23.70
2018-12-21T15:21:11.190Z,23.70
2018-12-21T15:23:39.393Z,23.80
2018-12-21T15:26:07.645Z,23.80
2018-12-21T15:28:36.284Z,23.70
2018-12-21T15:31:05.047Z,23.70
2018-12-21T15:33:33.959Z,23.70
2018-12-21T15:36:03.071Z,23.70
2018-12-21T15:38:32.731Z,23.70
2018-12-21T15:41:01.559Z,23.70
2018-12-21T15:43:30.416Z,23.70
2018-12-21T15:45:59.312Z,23.70
2018-12-21T15:48:28.162Z,23.70
2018-12-21T15:50:57.015Z,23.70
2018-12-21T15:53:25.837Z,23.70
2018-12-21T15:55:55.137Z,23.70
2018-12-21T15:58:24.146Z,23.70
2018-12-21T16:00:53.355Z,23.70
2018-12-21T16:03:22.307Z,23.70
2018-12-21T16:05:51.248Z,23.70
2018-12-21T16:08:20.153Z,23.70
2018-12-21T16:10:49.011Z,23.60
2018-12-21T16:13:17.981Z,23.70
2018-12-21T16:15:46.987Z,23.70
2018-12-21T16:18:16.312Z,23.70
2018-12-21T16:20:45.500Z,23.70
2018-12-21T16:23:14.043Z,23.70
2018-12-21T16:25:44.187Z,23.70
2018-12-21T16:28:12.949Z,23.60
2018-12-21T16:30:41.623Z,23.70
2018-12-21T16:33:11.191Z,23.70
2018-12-21T16:35:40.871Z,23.60
2018-12-21T16:38:10.143Z,23.60
2018-12-21T16:40:38.987Z,23.60
2018-12-21T16:43:08.568Z,23.60
2018-12-21T16:45:37.419Z,23.60
2018-12-21T16:48:06.394Z,23.60
2018-12-21T16:50:35.480Z,23.60
2018-12-21T16:53:04.333Z,23.60
2018-12-21T16:55:33.616Z,23.60
2018-12-21T16:58:02.448Z,23.60
2018-12-21T17:00:31.325Z,23.60
2018-12-21T17:03:00.243Z,23.60
2018-12-21T17:05:29.067Z,23.70
2018-12-21T17:07:57.981Z,23.60
2018-12-21T17:10:26.893Z,23.60
2018-12-21T17:12:56.383Z,23.60
2018-12-21T17:15:25.618Z,23.60
2018-12-21T17:17:54.874Z,23.60
2018-12-21T17:20:24.419Z,23.70
2018-12-21T17:22:53.227Z,23.70
2018-12-21T17:25:22.335Z,23.70
2018-12-21T17:27:51.521Z,23.70
2018-12-21T17:30:21.987Z,23.60
2018-12-21T17:32:51.001Z,23.60
2018-12-21T17:35:19.940Z,23.70
2018-12-21T17:37:48.814Z,23.60
2018-12-21T17:40:17.635Z,23.60
2018-12-21T17:42:45.849Z,23.60
2018-12-21T17:45:14.483Z,23.70
2018-12-21T17:47:42.694Z,23.60
2018-12-21T17:50:11.106Z,23.60
2018-12-21T17:52:39.311Z,23.60
2018-12-21T17:55:08.921Z,23.60
2018-12-21T17:57:37.870Z,23.70
2018-12-21T18:00:14.773Z,23.60
2018-12-21T18:02:44.158Z,23.60
2018-12-21T18:05:12.450Z,23.60
2018-12-21T18:07:40.655Z,23.60
2018-12-21T18:10:10.147Z,23.60
2018-12-21T18:12:38.367Z,23.60
2018-12-21T18:15:08.049Z,23.60
2018-12-21T18:17:36.550Z,23.60
2018-12-21T18:20:07.922Z,23.60
2018-12-21T18:22:36.136Z,23.60
2018-12-21T18:25:10.432Z,23.60
2018-12-21T18:27:38.637Z,23.60
2018-12-21T18:30:12.773Z,23.60
2018-12-21T18:32:41.088Z,23.60
2018-12-21T18:35:13.975Z,23.60
2018-12-21T18:37:47.081Z,23.60
2018-12-21T18:40:16.035Z,23.60
2018-12-21T18:42:44.679Z,23.60
2018-12-21T18:45:13.560Z,23.60
2018-12-21T18:47:42.426Z,23.60
2018-12-21T18:50:13.111Z,23.60
2018-12-21T18:52:41.720Z,23.60
2018-12-21T18:55:12.052Z,23.60
2018-12-21T18:57:46.752Z,23.60
2018-12-21T19:00:16.369Z,23.60
2018-12-21T19:02:44.606Z,23.60
2018-12-21T19:05:12.810Z,23.60
2018-12-21T19:07:41.193Z,23.60
2018-12-21T19:10:10.596Z,23.60
2018-12-21T19:12:38.904Z,23.60
2018-12-21T19:15:09.516Z,23.60
2018-12-21T19:17:37.792Z,23.60
2018-12-21T19:20:08.714Z,23.60
2018-12-21T19:22:36.930Z,23.60
2018-12-21T19:25:05.870Z,23.60
2018-12-21T19:27:34.758Z,23.60
2018-12-21T19:30:03.438Z,23.60
2018-12-21T19:32:31.660Z,23.60
2018-12-21T19:35:00.571Z,23.60
2018-12-21T19:37:28.906Z,23.60
2018-12-21T19:39:59.567Z,23.60
2018-12-21T19:42:28.596Z,23.70
2018-12-21T19:44:56.795Z,23.70
2018-12-21T19:47:25.000Z,23.60
2018-12-21T19:49:56.240Z,23.60
2018-12-21T19:52:24.493Z,23.60
2018-12-21T19:54:59.010Z,23.60
2018-12-21T19:57:27.265Z,23.60
2018-12-21T19:59:55.558Z,23.60
2018-12-21T20:02:24.330Z,23.60
2018-12-21T20:04:52.607Z,23.60
2018-12-21T20:07:20.860Z,23.60
2018-12-21T20:09:49.173Z,23.60
2018-12-21T20:12:17.463Z,23.60
2018-12-21T20:14:46.731Z,23.60
2018-12-21T20:17:14.954Z,23.60
2018-12-21T20:19:43.183Z,23.60
2018-12-21T20:22:11.408Z,23.60
2018-12-21T20:24:40.772Z,23.60
2018-12-21T20:27:13.791Z,23.60
2018-12-21T20:29:42.553Z,23.50
2018-12-21T20:32:13.959Z,23.50
2018-12-21T20:34:42.167Z,23.50
2018-12-21T20:37:10.572Z,23.50
2018-12-21T20:39:42.018Z,23.50
2018-12-21T20:42:10.215Z,23.50
2018-12-21T20:44:38.471Z,23.50
2018-12-21T20:47:07.825Z,23.50
2018-12-21T20:49:36.146Z,23.50
2018-12-21T20:52:04.352Z,23.50
2018-12-21T20:54:32.550Z,23.50
2018-12-21T20:57:02.879Z,23.50
2018-12-21T20:59:31.087Z,23.50
2018-12-21T21:01:59.345Z,23.50
2018-12-21T21:04:28.607Z,23.50
2018-12-21T21:06:56.858Z,23.50
2018-12-21T21:09:25.077Z,23.50
2018-12-21T21:11:53.403Z,23.50
2018-12-21T21:14:22.758Z,23.50
2018-12-21T21:16:50.990Z,23.50
2018-12-21T21:19:19.224Z,23.50
2018-12-21T21:21:47.548Z,23.50
2018-12-21T21:24:15.755Z,23.50
2018-12-21T21:26:43.969Z,23.50
2018-12-21T21:29:12.186Z,23.50
2018-12-21T21:31:43.547Z,23.50
2018-12-21T21:34:11.770Z,23.50
2018-12-21T21:36:39.994Z,23.50
2018-12-21T21:39:08.195Z,23.50
2018-12-21T21:41:36.421Z,23.50
2018-12-21T21:44:04.793Z,23.60
2018-12-21T21:46:33.044Z,23.50
2018-12-21T21:49:01.260Z,23.50
2018-12-21T21:51:29.475Z,23.50
2018-12-21T21:53:57.757Z,23.60
2018-12-21T21:56:25.979Z,23.60
2018-12-21T21:58:55.043Z,23.60
2018-12-21T22:01:23.599Z,23.60
2018-12-21T22:03:51.922Z,23.60
2018-12-21T22:06:21.102Z,23.60
2018-12-21T22:08:49.310Z,23.60
2018-12-21T22:11:17.539Z,23.60
2018-12-21T22:13:45.768Z,23.60
2018-12-21T22:16:14.003Z,23.60
2018-12-21T22:18:42.832Z,23.60
2018-12-21T22:21:12.003Z,23.60
2018-12-21T22:23:40.698Z,23.60
2018-12-21T22:26:08.964Z,23.60
2018-12-21T22:28:37.209Z,23.60
2018-12-21T22:31:05.404Z,23.60
2018-12-21T22:33:33.984Z,23.60
2018-12-21T22:36:02.186Z,23.60
2018-12-21T22:38:30.409Z,23.60
2018-12-21T22:40:58.608Z,23.60
2018-12-21T22:43:27.415Z,23.60
2018-12-21T22:45:55.834Z,23.70
2018-12-21T22:48:25.105Z,23.70
2018-12-21T22:50:53.325Z,23.70
2018-12-21T22:53:22.035Z,23.70
2018-12-21T22:55:50.290Z,23.70
2018-12-21T22:58:19.431Z,23.70
2018-12-21T23:00:49.025Z,23.70
2018-12-21T23:03:18.267Z,23.80
2018-12-21T23:05:46.513Z,23.80
2018-12-21T23:08:15.411Z,23.80
2018-12-21T23:10:43.645Z,23.80
2018-12-21T23:13:12.514Z,23.80
2018-12-21T23:15:41.746Z,23.80
2018-12-21T23:18:10.014Z,23.80
2018-12-21T23:20:38.392Z,23.80
2018-12-21T23:23:06.669Z,23.90
2018-12-21T23:25:35.562Z,23.90
2018-12-21T23:28:05.223Z,23.90
2018-12-21T23:30:34.105Z,23.90
2018-12-21T23:33:03.415Z,23.90
2018-12-21T23:35:31.705Z,23.90
2018-12-21T23:38:00.157Z,24.00
2018-12-21T23:40:28.356Z,24.00
2018-12-21T23:42:56.547Z,24.00
2018-12-21T23:45:24.755Z,24.00
2018-12-21T23:47:52.964Z,24.00
2018-12-21T23:50:21.211Z,24.00
2018-12-21T23:52:49.467Z,24.10
2018-12-21T23:55:17.693Z,24.10
2018-12-21T23:57:45.890Z,24.10
